Time;durP1;ratioP1;P1;durP2;ratioP2;P2;SDS_P1;SDS_P2;PMS_P1;PMS_P2;Temp;Humidity;BMP_temperature;BMP_pressure;BME280_temperature;BME280_humidity;BME280_pressure;Samples;Min_cycle;Max_cycle;Signal;HPM_P1;HPM_P2
2021/11/08 00:00:59;;;;;;;7.88;2.90;;;5.90;99.90;;;4.09;100.00;101606.38;2568468;30;137602;-39
2021/11/08 00:03:32;;;;;;;11.88;3.72;;;5.80;99.90;;;4.03;100.00;101605.13;2568119;30;139177;-39
2021/11/08 00:06:03;;;;;;;12.05;3.40;;;5.80;99.90;;;4.03;100.00;101609.69;2567931;30;138203;-39
2021/11/08 00:08:32;;;;;;;14.20;3.25;;;5.80;99.90;;;4.01;100.00;101606.31;2568864;30;138225;-39
2021/11/08 00:11:00;;;;;;;12.68;2.92;;;5.80;99.90;;;3.99;100.00;101617.25;2567722;30;137083;-39
2021/11/08 00:13:28;;;;;;;;;;;5.70;99.90;;;3.90;100.00;101610.03;2568032;30;138181;-39
2021/11/08 00:21:10;;;;;;;11.05;3.47;;;5.60;99.90;;;3.78;100.00;101611.22;2567735;30;137094;-39
2021/11/08 00:23:38;;;;;;;12.32;3.40;;;5.60;99.90;;;3.87;100.00;101607.66;2566932;30;137529;-39
2021/11/08 00:26:05;;;;;;;15.10;4.20;;;5.60;99.90;;;3.88;100.00;101603.94;2567650;30;137273;-39
2021/11/08 00:28:33;;;;;;;12.93;3.83;;;5.60;99.90;;;3.84;100.00;101611.47;2567215;30;138301;-39
2021/11/08 00:31:01;;;;;;;12.50;3.58;;;5.60;99.90;;;3.84;100.00;101602.50;2567860;30;137047;-39
2021/11/08 00:33:29;;;;;;;10.40;3.38;;;5.60;99.90;;;3.81;100.00;101609.09;2567558;30;138982;-39
2021/11/08 00:36:00;;;;;;;;;;;5.60;99.90;;;3.81;100.00;101597.41;2567557;30;138466;-39
2021/11/08 00:38:29;;;;;;;12.98;3.75;;;5.50;99.90;;;3.88;100.00;101599.38;2566908;30;139111;-39
2021/11/08 00:40:58;;;;;;;13.13;4.43;;;5.60;99.90;;;4.01;100.00;101603.59;2568450;30;137474;-39
2021/11/08 00:43:27;;;;;;;11.15;4.15;;;5.70;99.90;;;4.03;100.00;101607.00;2565802;30;138167;-39
2021/11/08 00:45:55;;;;;;;14.15;4.85;;;5.70;99.90;;;4.01;100.00;101588.22;2567226;30;137588;-39
2021/11/08 00:48:29;;;;;;;16.98;5.10;;;5.80;99.90;;;4.20;100.00;101605.34;2567655;30;137456;-39
2021/11/08 00:50:57;;;;;;;12.77;5.22;;;5.80;99.90;;;4.27;100.00;101608.28;2567852;30;137104;-39
2021/11/08 00:53:24;;;;;;;16.30;5.85;;;5.90;99.90;;;4.34;100.00;101611.22;2568335;30;137090;-39
2021/11/08 00:55:53;;;;;;;16.95;5.80;;;6.00;99.90;;;4.35;100.00;101611.06;2567357;30;138248;-39
2021/11/08 00:58:28;;;;;;;15.50;5.25;;;6.00;99.90;;;4.31;100.00;101612.38;2567776;30;137486;-39
2021/11/08 01:01:01;;;;;;;17.15;5.18;;;6.00;99.90;;;4.24;100.00;101619.38;2567337;30;137098;-39
2021/11/08 01:03:32;;;;;;;15.18;5.40;;;6.00;99.90;;;4.20;100.00;101616.13;2567038;30;138471;-39
2021/11/08 01:06:01;;;;;;;19.95;5.80;;;6.00;99.90;;;4.16;100.00;101615.59;2566745;30;137029;-39
2021/11/08 01:08:30;;;;;;;10.60;5.20;;;5.90;99.90;;;4.12;100.00;101622.28;2566937;30;139017;-39
2021/11/08 01:10:58;;;;;;;14.82;5.20;;;5.90;99.90;;;4.08;100.00;101620.91;2568430;30;137607;-39
2021/11/08 01:13:29;;;;;;;17.58;5.47;;;5.80;99.90;;;4.07;100.00;101615.63;2567617;30;140230;-39
2021/11/08 01:15:57;;;;;;;14.73;5.00;;;5.80;99.90;;;4.15;100.00;101627.38;2568731;30;136865;-39
2021/11/08 01:18:26;;;;;;;18.58;5.65;;;5.80;99.90;;;4.23;100.00;101629.34;2568391;30;139260;-39
2021/11/08 01:20:54;;;;;;;16.23;5.28;;;5.90;99.90;;;4.30;100.00;101626.91;2567826;30;137504;-39
2021/11/08 01:23:27;;;;;;;15.60;5.70;;;5.90;99.90;;;4.37;100.00;101637.94;2567088;30;139063;-39
2021/11/08 01:26:06;;;;;;;15.57;5.72;;;6.00;99.90;;;4.45;100.00;101630.75;2566831;30;137340;-39
2021/11/08 01:28:39;;;;;;;14.10;5.68;;;6.10;99.90;;;4.63;100.00;101639.88;2564829;30;138695;-39
2021/11/08 01:31:09;;;;;;;20.88;5.90;;;6.20;99.90;;;4.74;100.00;101629.69;2567611;30;138284;-39
2021/11/08 01:33:41;;;;;;;15.15;5.93;;;6.30;99.90;;;4.83;100.00;101629.81;2567622;30;137896;-39
2021/11/08 01:36:12;;;;;;;16.13;5.45;;;6.40;99.90;;;4.96;100.00;101641.06;2568004;30;137828;-39
2021/11/08 01:38:45;;;;;;;18.42;6.05;;;6.50;99.90;;;5.01;100.00;101636.03;2567236;30;138569;-39
2021/11/08 01:41:17;;;;;;;18.83;5.70;;;6.60;99.90;;;5.04;100.00;101632.19;2565916;30;137040;-39
2021/11/08 01:43:47;;;;;;;19.38;6.85;;;6.70;99.90;;;5.13;100.00;101639.34;2567278;30;137068;-39
2021/11/08 01:46:17;;;;;;;13.18;5.45;;;6.70;99.90;;;5.07;100.00;101631.84;2568255;30;137528;-39
2021/11/08 01:48:46;;;;;;;17.92;5.85;;;6.70;99.90;;;5.10;100.00;101636.94;2568231;30;137193;-39
2021/11/08 01:51:15;;;;;;;21.83;6.00;;;6.80;99.90;;;5.09;100.00;101634.44;2568803;30;137614;-39
2021/11/08 01:53:43;;;;;;;18.40;5.50;;;6.70;99.90;;;5.03;100.00;101635.88;2568029;30;138210;-39
2021/11/08 01:56:14;;;;;;;14.95;5.07;;;6.70;99.90;;;4.98;100.00;101630.09;2568357;30;138275;-39
2021/11/08 01:58:41;;;;;;;15.20;5.05;;;6.70;99.90;;;4.90;100.00;101633.56;2567447;30;137530;-39
2021/11/08 02:01:09;;;;;;;11.60;4.32;;;6.60;99.90;;;4.84;100.00;101636.91;2568976;30;138270;-39
2021/11/08 02:03:37;;;;;;;15.73;4.82;;;6.60;99.90;;;4.80;100.00;101632.81;2568928;30;137288;-39
2021/11/08 02:06:05;;;;;;;16.25;4.72;;;6.50;99.90;;;4.79;100.00;101628.41;2567759;30;138082;-39
2021/11/08 02:08:37;;;;;;;17.48;5.03;;;6.50;99.90;;;4.78;100.00;101637.53;2567092;30;137360;-39
2021/11/08 02:11:05;;;;;;;15.45;5.07;;;6.50;99.90;;;4.70;100.00;101627.47;2568358;30;138390;-39
2021/11/08 02:13:33;;;;;;;13.43;4.35;;;6.50;99.90;;;4.72;100.00;101634.41;2567568;30;138318;-39
2021/11/08 02:16:02;;;;;;;13.65;4.35;;;6.40;99.90;;;4.75;100.00;101635.97;2568984;30;138453;-39
2021/11/08 02:18:30;;;;;;;13.93;4.63;;;6.40;99.90;;;4.79;100.00;101639.22;2567359;30;137265;-39
2021/11/08 02:21:01;;;;;;;12.65;4.80;;;6.40;99.90;;;4.84;100.00;101642.31;2567880;30;136750;-39
2021/11/08 02:23:29;;;;;;;17.45;4.97;;;6.50;99.90;;;4.88;100.00;101649.94;2567800;30;138802;-39
2021/11/08 02:26:02;;;;;;;17.98;4.57;;;6.50;99.90;;;4.99;100.00;101648.88;2568375;30;137482;-39
2021/11/08 02:28:30;;;;;;;15.50;4.70;;;6.60;99.90;;;5.03;100.00;101644.84;2568097;30;139038;-39
2021/11/08 02:30:59;;;;;;;18.70;4.75;;;6.60;99.90;;;5.08;100.00;101647.09;2568612;30;136900;-39
2021/11/08 02:33:28;;;;;;;17.98;4.18;;;6.70;99.90;;;5.11;100.00;101649.47;2567413;30;137858;-39
2021/11/08 02:35:57;;;;;;;19.02;5.13;;;6.70;99.90;;;5.18;100.00;101644.28;2568894;30;137658;-39
2021/11/08 02:38:27;;;;;;;19.02;4.63;;;6.80;99.90;;;5.18;100.00;101647.00;2568397;30;137460;-39
2021/11/08 02:40:59;;;;;;;12.40;4.53;;;6.80;99.90;;;5.20;100.00;101647.69;2568257;30;138611;-39
2021/11/08 02:43:27;;;;;;;11.02;4.40;;;6.80;99.90;;;5.21;100.00;101654.81;2566511;30;138315;-39
2021/11/08 02:46:14;;;;;;;19.25;5.70;;;6.80;99.90;;;5.22;100.00;101642.97;2568587;30;137067;-39
2021/11/08 02:48:45;;;;;;;11.98;4.28;;;6.80;99.90;;;5.16;100.00;101641.72;2565428;30;138769;-39
2021/11/08 02:51:24;;;;;;;15.73;5.47;;;6.80;99.90;;;5.21;100.00;101646.69;2568927;30;136996;-39
2021/11/08 02:54:00;;;;;;;13.52;4.30;;;6.90;99.90;;;5.22;100.00;101656.50;2567879;30;138470;-39
2021/11/08 02:56:28;;;;;;;12.93;4.03;;;6.90;99.90;;;5.26;100.00;101648.94;2565966;30;136978;-39
2021/11/08 02:58:56;;;;;;;19.60;5.00;;;6.90;99.90;;;5.29;100.00;101656.72;2566538;30;138437;-39
2021/11/08 03:01:25;;;;;;;;;;;6.90;99.90;;;5.27;100.00;101651.47;2567888;30;136986;-39
2021/11/08 03:03:56;;;;;;;11.37;3.70;;;6.90;99.90;;;5.27;100.00;101659.56;2570042;30;137392;-39
2021/11/08 03:08:54;;;;;;;15.55;4.22;;;6.90;99.90;;;5.29;100.00;101662.13;2579576;30;138265;-38
2021/11/08 03:11:23;;;;;;;12.23;3.80;;;6.90;99.90;;;5.28;100.00;101661.28;2568803;30;137020;-38
2021/11/08 03:14:04;;;;;;;18.48;4.63;;;6.90;99.90;;;5.32;100.00;101661.81;2568577;30;138998;-38
2021/11/08 03:16:48;;;;;;;12.98;4.07;;;6.90;99.90;;;5.32;100.00;101657.28;2568180;30;138690;-38
2021/11/08 03:19:24;;;;;;;14.98;4.13;;;7.00;99.90;;;5.38;100.00;101663.06;2570230;30;136847;-38
2021/11/08 03:21:57;;;;;;;13.25;3.95;;;7.00;99.90;;;5.40;100.00;101658.34;2570776;30;138155;-38
2021/11/08 03:24:42;;;;;;;14.23;4.90;;;7.00;99.90;;;5.39;100.00;101662.03;2568131;30;138265;-38
2021/11/08 03:27:43;;;;;;;14.05;3.88;;;7.00;99.90;;;5.42;100.00;101661.72;2572657;30;138383;-38
2021/11/08 03:30:19;;;;;;;17.75;4.38;;;7.00;99.90;;;5.43;100.00;101658.84;2566569;30;138440;-38
2021/11/08 03:32:49;;;;;;;14.18;4.25;;;7.00;99.90;;;5.45;100.00;101662.28;2570646;30;136931;-38
2021/11/08 03:35:21;;;;;;;11.93;3.70;;;7.10;99.90;;;5.43;100.00;101658.00;2567714;30;138184;-38
2021/11/08 03:37:52;;;;;;;19.13;4.40;;;7.10;99.90;;;5.45;100.00;101662.28;2568660;30;138159;-38
2021/11/08 03:40:28;;;;;;;23.60;4.55;;;7.10;99.90;;;5.48;100.00;101658.38;2568703;30;138330;-38
2021/11/08 03:42:57;;;;;;;10.18;3.53;;;7.10;99.90;;;5.45;100.00;101667.69;2568970;30;137660;-38
2021/11/08 03:45:28;;;;;;;14.27;3.97;;;7.10;99.90;;;5.48;100.00;101671.91;2568750;30;137975;-38
2021/11/08 03:47:58;;;;;;;19.77;4.38;;;7.10;99.90;;;5.49;100.00;101662.78;2568467;30;138526;-38
2021/11/08 03:50:27;;;;;;;10.75;3.75;;;7.10;99.90;;;5.46;100.00;101663.97;2567920;30;138081;-38
2021/11/08 03:52:55;;;;;;;17.98;4.25;;;7.10;99.90;;;5.47;100.00;101662.09;2570033;30;137605;-38
2021/11/08 03:55:25;;;;;;;14.23;3.85;;;7.10;99.90;;;5.52;100.00;101673.28;2569316;30;138330;-38
2021/11/08 03:57:54;;;;;;;12.85;4.15;;;7.10;99.90;;;5.47;100.00;101664.81;2566882;30;138069;-38
2021/11/08 04:00:25;;;;;;;17.63;3.97;;;7.10;99.90;;;5.57;100.00;101686.38;2569882;30;138500;-38
2021/11/08 04:02:55;;;;;;;12.90;3.50;;;7.20;99.90;;;5.66;100.00;101671.88;2568383;30;137517;-38
2021/11/08 04:05:26;;;;;;;19.92;3.85;;;7.20;99.90;;;5.63;100.00;101685.72;2567697;30;138195;-38
2021/11/08 04:07:55;;;;;;;15.40;3.85;;;7.20;99.90;;;5.67;100.00;101686.28;2568857;30;138086;-38
2021/11/08 04:10:24;;;;;;;16.48;4.18;;;7.20;99.90;;;5.67;100.00;101683.56;2568490;30;137824;-38
2021/11/08 04:12:53;;;;;;;12.40;3.75;;;7.30;99.90;;;5.64;100.00;101689.28;2570139;30;137443;-38
2021/11/08 04:15:28;;;;;;;11.15;3.75;;;7.20;99.90;;;5.57;100.00;101675.53;2569522;30;138478;-38
2021/11/08 04:17:56;;;;;;;12.18;3.60;;;7.20;99.90;;;5.59;100.00;101682.50;2566769;30;137888;-38
2021/11/08 04:20:24;;;;;;;10.35;3.38;;;7.20;99.90;;;5.60;100.00;101689.63;2570427;30;138348;-39
2021/11/08 04:22:54;;;;;;;17.67;4.97;;;7.20;99.90;;;5.63;100.00;101684.91;2568587;30;136641;-38
2021/11/08 04:25:24;;;;;;;13.15;3.70;;;7.20;99.90;;;5.65;100.00;101686.41;2570725;30;139098;-38
2021/11/08 04:27:52;;;;;;;13.70;3.67;;;7.20;99.90;;;5.62;100.00;101694.84;2569805;30;137552;-38
2021/11/08 04:30:21;;;;;;;;;;;7.20;99.90;;;5.60;100.00;101697.75;2569288;30;138373;-38
2021/11/08 04:35:31;;;;;;;18.58;4.53;;;7.20;99.90;;;5.50;100.00;101686.13;2569507;30;137395;-38
2021/11/08 04:40:41;;;;;;;16.02;3.60;;;7.10;99.90;;;5.38;100.00;101692.81;2567044;30;138106;-38
2021/11/08 04:46:18;;;;;;;18.80;4.53;;;7.00;99.90;;;5.25;100.00;101694.06;2569282;30;138985;-38
2021/11/08 04:54:40;;;;;;;13.07;3.83;;;6.70;99.90;;;4.82;100.00;101688.41;2570547;30;137097;-38
2021/11/08 05:22:07;;;;;;;16.02;3.33;;;6.20;99.90;;;4.45;100.00;101706.44;2568855;30;137341;-38
2021/11/08 05:32:17;;;;;;;9.77;3.17;;;6.10;99.90;;;4.45;100.00;101719.09;2570435;30;136860;-38
2021/11/08 05:34:45;;;;;;;8.93;2.97;;;6.10;99.90;;;4.44;100.00;101722.81;2566580;30;138431;-38
2021/11/08 05:37:14;;;;;;;12.48;3.03;;;6.20;99.90;;;4.39;100.00;101725.94;2569495;30;137333;-38
2021/11/08 05:39:50;;;;;;;9.15;2.92;;;6.10;99.90;;;4.35;100.00;101729.97;2570975;30;138267;-39
2021/11/08 05:42:19;;;;;;;9.10;3.25;;;6.10;99.90;;;4.28;100.00;101729.69;2570353;30;138772;-38
2021/11/08 05:44:47;;;;;;;9.55;2.83;;;6.00;99.90;;;4.24;100.00;101730.13;2569206;30;138811;-38
2021/11/08 05:47:15;;;;;;;11.70;2.70;;;6.00;99.90;;;4.19;100.00;101725.19;2567787;30;137547;-38
2021/11/08 05:49:45;;;;;;;;;;;6.00;99.90;;;4.12;100.00;101718.69;2569940;30;139175;-38
2021/11/08 05:52:15;;;;;;;8.10;3.00;;;5.90;99.90;;;4.06;100.00;101728.22;2565523;30;137961;-38
2021/11/08 05:54:46;;;;;;;8.85;3.10;;;5.90;99.90;;;3.97;100.00;101737.19;2569597;30;138130;-41
2021/11/08 06:49:36;;;;;;;5.57;2.20;;;4.40;99.90;;;2.46;100.00;101796.69;2569326;30;138945;-40
2021/11/08 06:52:05;;;;;;;4.15;1.80;;;4.30;99.90;;;2.41;100.00;101807.88;2570366;30;137517;-40
2021/11/08 06:54:33;;;;;;;6.82;2.20;;;4.20;99.90;;;2.40;100.00;101792.72;2567580;30;138321;-40
2021/11/08 06:57:15;;;;;;;;;;;4.20;99.90;;;2.37;100.00;101792.13;2570911;30;137513;-40
2021/11/08 06:59:47;;;;;;;5.63;1.77;;;4.20;99.90;;;2.36;100.00;101793.13;2567294;30;138343;-40
2021/11/08 07:02:19;;;;;;;5.03;2.08;;;4.20;99.90;;;2.33;100.00;101796.06;2568025;30;137369;-40
2021/11/08 07:04:47;;;;;;;6.05;2.20;;;4.20;99.90;;;2.31;100.00;101793.50;2572068;30;139304;-40
2021/11/08 07:07:15;;;;;;;6.47;2.17;;;4.10;99.90;;;2.26;100.00;101791.25;2569223;30;137498;-40
2021/11/08 07:09:43;;;;;;;4.40;2.17;;;4.10;99.90;;;2.26;100.00;101795.75;2568862;30;138942;-40
2021/11/08 07:12:12;;;;;;;7.28;2.35;;;4.10;99.90;;;2.27;100.00;101797.47;2569426;30;137717;-40
2021/11/08 07:14:40;;;;;;;5.88;2.45;;;4.10;99.90;;;2.26;100.00;101802.00;2568295;30;138597;-40
2021/11/08 07:17:09;;;;;;;7.30;2.35;;;4.10;99.90;;;2.25;100.00;101794.03;2569258;30;137073;-40
2021/11/08 07:19:37;;;;;;;6.28;2.38;;;4.10;99.90;;;2.26;100.00;101807.41;2568773;30;138549;-40
2021/11/08 07:22:05;;;;;;;;;;;4.00;99.90;;;2.29;100.00;101808.94;2569610;30;137525;-40
2021/11/08 07:24:33;;;;;;;8.07;2.63;;;4.10;99.90;;;2.37;100.00;101806.44;2569668;30;138817;-40
2021/11/08 07:27:02;;;;;;;9.75;2.55;;;4.10;99.90;;;2.48;100.00;101813.56;2567965;30;138699;-40
2021/11/08 07:29:30;;;;;;;5.63;2.83;;;4.20;99.90;;;2.58;100.00;101819.88;2568999;30;139295;-40
2021/11/08 07:31:58;;;;;;;8.73;3.05;;;4.30;99.90;;;2.72;100.00;101817.78;2570673;30;138555;-40
2021/11/08 07:34:25;;;;;;;9.70;3.45;;;4.40;99.90;;;2.86;100.00;101824.63;2571321;30;137500;-40
2021/11/08 07:36:53;;;;;;;8.30;3.20;;;4.50;99.90;;;3.02;100.00;101822.28;2567333;30;136818;-40
2021/11/08 07:39:21;;;;;;;13.88;3.85;;;4.60;99.90;;;3.29;100.00;101818.06;2568710;30;137521;-40
2021/11/08 07:41:48;;;;;;;9.73;3.65;;;4.80;99.90;;;3.46;100.00;101826.47;2569362;30;138238;-40
2021/11/08 07:44:17;;;;;;;12.73;3.60;;;5.00;99.90;;;3.66;100.00;101826.47;2569668;30;138122;-39
2021/11/08 07:46:44;;;;;;;15.15;4.72;;;5.20;99.90;;;3.85;100.00;101839.97;2568314;30;137376;-40
2021/11/08 07:49:12;;;;;;;15.13;5.20;;;5.40;99.90;;;4.06;100.00;101843.50;2571431;30;139240;-40
2021/11/08 07:51:43;;;;;;;12.95;4.93;;;5.60;99.90;;;4.25;100.00;101840.75;2569100;30;138037;-40
2021/11/08 07:54:11;;;;;;;;;;;5.70;99.90;;;4.43;100.00;101842.72;2568480;30;138270;-40
2021/11/08 07:56:38;;;;;;;26.48;5.75;;;5.90;99.90;;;4.60;100.00;101835.69;2570369;30;137880;-40
2021/11/08 07:59:06;;;;;;;18.30;5.75;;;6.10;99.90;;;4.70;100.00;101850.00;2570156;30;137411;-40
2021/11/08 08:01:34;;;;;;;26.98;7.13;;;6.20;99.90;;;4.86;100.00;101852.06;2569076;30;137088;-40
2021/11/08 08:04:01;;;;;;;17.98;5.88;;;6.30;99.90;;;5.00;100.00;101853.41;2570092;30;137651;-40
2021/11/08 08:06:29;;;;;;;21.60;6.20;;;6.50;99.90;;;5.14;100.00;101856.63;2569628;30;138127;-40
2021/11/08 08:08:56;;;;;;;20.25;6.28;;;6.60;99.90;;;5.30;100.00;101866.78;2569743;30;136997;-40
2021/11/08 08:11:24;;;;;;;23.17;6.25;;;6.80;99.90;;;5.39;100.00;101865.03;2571382;30;136807;-40
2021/11/08 08:13:52;;;;;;;;;;;6.90;99.90;;;5.42;100.00;101857.44;2566138;30;137084;-40
2021/11/08 08:16:21;;;;;;;18.92;5.75;;;6.90;99.90;;;5.55;100.00;101859.78;2569026;30;137906;-40
2021/11/08 08:18:51;;;;;;;16.60;6.60;;;7.00;99.90;;;5.67;100.00;101867.69;2570170;30;137710;-40
2021/11/08 08:21:20;;;;;;;21.05;6.20;;;7.10;99.90;;;5.68;100.00;101864.81;2569470;30;138226;-40
2021/11/08 08:23:54;;;;;;;19.60;5.80;;;7.20;99.90;;;5.76;100.00;101867.59;2566604;30;136731;-40
2021/11/08 08:26:32;;;;;;;19.88;6.43;;;7.30;99.90;;;5.91;100.00;101877.88;2568889;30;137265;-40
2021/11/08 08:29:03;;;;;;;22.92;6.68;;;7.40;99.90;;;6.01;100.00;101883.25;2569073;30;139137;-40
2021/11/08 08:31:33;;;;;;;20.63;6.28;;;7.50;99.90;;;6.08;100.00;101883.47;2568075;30;137690;-40
2021/11/08 08:34:01;;;;;;;19.67;6.80;;;7.60;99.90;;;6.14;100.00;101872.88;2568844;30;137615;-40
2021/11/08 08:36:28;;;;;;;17.17;6.25;;;7.60;99.90;;;6.22;100.00;101872.06;2569057;30;136969;-40
2021/11/08 08:38:56;;;;;;;19.25;6.05;;;7.70;99.90;;;6.28;100.00;101881.44;2568977;30;139081;-40
2021/11/08 08:41:24;;;;;;;31.23;6.55;;;7.70;99.90;;;6.36;100.00;101869.81;2568679;30;136733;-40
2021/11/08 08:43:52;;;;;;;;;;;7.80;99.90;;;6.41;100.00;101873.75;2568987;30;137412;-41
2021/11/08 08:46:20;;;;;;;23.55;6.70;;;7.90;99.90;;;6.48;100.00;101884.78;2567892;30;137282;-40
2021/11/08 08:48:50;;;;;;;22.40;7.03;;;7.90;99.90;;;6.53;100.00;101881.59;2570058;30;138322;-40
2021/11/08 08:51:18;;;;;;;17.52;5.60;;;8.00;99.90;;;6.66;100.00;101892.88;2570162;30;138297;-41
2021/11/08 08:53:46;;;;;;;23.20;6.35;;;8.10;99.90;;;6.85;100.00;101899.94;2569081;30;137929;-40
2021/11/08 08:56:22;;;;;;;16.33;5.78;;;8.20;99.90;;;7.00;100.00;101897.47;2569761;30;136969;-39
2021/11/08 08:58:52;;;;;;;18.52;6.25;;;8.40;99.90;;;7.13;100.00;101898.84;2568610;30;137595;-38
2021/11/08 09:01:22;;;;;;;20.08;6.75;;;8.50;99.90;;;7.20;100.00;101905.34;2569107;30;137146;-39
2021/11/08 09:03:52;;;;;;;19.60;5.47;;;8.60;99.90;;;7.28;100.00;101915.38;2568575;30;138526;-38
2021/11/08 09:06:20;;;;;;;17.58;6.45;;;8.60;99.90;;;7.34;100.00;101912.84;2570289;30;137961;-38
2021/11/08 09:08:47;;;;;;;21.20;5.90;;;8.70;99.90;;;7.40;100.00;101913.19;2589143;30;139141;-40
2021/11/08 09:11:16;;;;;;;17.73;5.80;;;8.80;99.90;;;7.47;100.00;101914.25;2568719;30;136873;-40
2021/11/08 09:13:44;;;;;;;19.45;5.40;;;8.80;99.90;;;7.57;100.00;101922.28;2567844;30;139038;-40
2021/11/08 09:16:13;;;;;;;21.98;7.03;;;8.90;99.90;;;7.58;100.00;101919.38;2567558;30;137530;-40
2021/11/08 09:18:45;;;;;;;16.50;5.25;;;9.00;99.90;;;7.62;100.00;101919.91;2568052;30;137491;-39
2021/11/08 09:21:13;;;;;;;18.23;6.20;;;9.00;99.90;;;7.71;100.00;101932.47;2567943;30;136971;-40
2021/11/08 09:23:41;;;;;;;22.80;5.28;;;9.10;99.90;;;7.80;100.00;101935.22;2567141;30;139129;-40
2021/11/08 09:26:12;;;;;;;14.57;5.03;;;9.20;99.90;;;7.80;100.00;101930.63;2564891;30;138245;-40
2021/11/08 09:28:40;;;;;;;13.88;4.60;;;9.20;99.90;;;7.87;100.00;101928.94;2567550;30;137299;-40
2021/11/08 09:31:08;;;;;;;21.67;5.95;;;9.20;99.90;;;7.93;100.00;101927.44;2565756;30;137504;-40
2021/11/08 09:33:36;;;;;;;;;;;9.30;99.90;;;8.02;100.00;101922.84;2564531;30;136765;-39
2021/11/08 09:36:08;;;;;;;15.20;4.97;;;9.40;99.90;;;8.05;100.00;101928.78;2567670;30;136946;-39
2021/11/08 09:38:39;;;;;;;18.58;5.18;;;9.40;99.90;;;8.19;100.00;101924.53;2567761;30;138536;-40
2021/11/08 09:41:12;;;;;;;18.92;4.63;;;9.50;99.90;;;8.28;98.51;101919.97;2565724;30;137928;-40
2021/11/08 09:43:40;;;;;;;19.83;5.60;;;9.60;99.90;;;8.49;99.54;101932.19;2566962;30;138350;-40
2021/11/08 09:46:09;;;;;;;19.45;4.90;;;9.70;99.90;;;8.70;99.45;101915.34;2567211;30;137848;-40
2021/11/08 09:48:39;;;;;;;18.05;5.72;;;9.90;99.90;;;8.87;98.01;101934.38;2565895;30;138211;-40
2021/11/08 09:51:12;;;;;;;19.60;5.55;;;10.00;99.90;;;9.03;95.92;101928.03;2567765;30;138373;-40
2021/11/08 09:53:41;;;;;;;19.95;5.32;;;10.20;99.90;;;9.09;92.91;101924.59;2567978;30;138401;-40
2021/11/08 09:56:12;;;;;;;14.30;4.53;;;10.30;99.90;;;9.19;93.48;101921.66;2566850;30;138178;-40
2021/11/08 09:58:47;;;;;;;16.57;5.03;;;10.40;99.90;;;9.33;92.91;101929.13;2568689;30;138226;-40
2021/11/08 10:01:20;;;;;;;19.67;4.82;;;10.50;99.90;;;9.41;93.13;101916.47;2566545;30;138288;-40
2021/11/08 10:03:49;;;;;;;14.30;4.07;;;10.60;99.90;;;9.50;92.86;101916.25;2568104;30;137231;-40
2021/11/08 10:06:19;;;;;;;18.02;4.88;;;10.70;99.90;;;9.54;92.15;101921.34;2567746;30;136898;-40
2021/11/08 10:08:52;;;;;;;13.27;4.15;;;10.70;99.90;;;9.54;90.70;101916.72;2567544;30;137765;-40
2021/11/08 10:11:22;;;;;;;18.27;5.05;;;10.80;99.90;;;9.54;90.81;101919.44;2567953;30;136684;-40
2021/11/08 10:13:52;;;;;;;15.20;4.05;;;10.80;99.90;;;9.49;89.52;101919.16;2568101;30;138194;-40
2021/11/08 10:16:35;;;;;;;19.17;4.85;;;10.80;99.90;;;9.49;90.77;101922.72;2568290;30;137620;-40
2021/11/08 10:19:07;;;;;;;16.45;4.10;;;10.80;99.90;;;9.48;91.48;101925.63;2567922;30;137315;-40
2021/11/08 10:21:45;;;;;;;16.85;4.22;;;10.80;99.90;;;9.41;89.87;101917.31;2567621;30;137324;-40
2021/11/08 10:24:18;;;;;;;14.53;4.10;;;10.80;99.90;;;9.34;89.78;101913.59;2569226;30;137416;-40
2021/11/08 10:26:46;;;;;;;17.98;5.10;;;10.70;99.90;;;9.14;90.23;101896.84;2568918;30;136924;-40
2021/11/08 10:29:17;;;;;;;;;;;10.70;99.90;;;9.17;90.30;101919.16;2567600;30;138595;-40
2021/11/08 10:32:08;;;;;;;13.52;4.00;;;10.60;99.90;;;9.14;89.40;101924.06;2568032;30;137354;-40
2021/11/08 10:34:58;;;;;;;14.65;4.28;;;10.50;99.90;;;9.21;90.16;101916.91;2567768;30;138826;-40
2021/11/08 10:37:30;;;;;;;23.23;4.82;;;10.50;99.90;;;9.34;89.72;101925.38;2568425;30;138519;-40
2021/11/08 10:40:14;;;;;;;15.90;4.28;;;10.60;99.90;;;9.49;89.51;101916.41;2566420;30;137827;-40
2021/11/08 10:43:01;;;;;;;16.15;3.88;;;10.70;99.90;;;9.71;89.10;101925.69;2568042;30;138231;-40
2021/11/08 10:45:29;;;;;;;17.27;4.18;;;10.80;99.90;;;9.73;85.98;101928.22;2566698;30;138036;-40
2021/11/08 10:48:03;;;;;;;16.95;4.47;;;11.00;99.90;;;9.73;86.10;101934.53;2567329;30;137231;-40
2021/11/08 10:50:44;;;;;;;18.98;3.90;;;11.00;99.90;;;9.76;87.01;101922.41;2569560;30;137094;-40
2021/11/08 10:53:12;;;;;;;17.77;4.43;;;11.00;99.90;;;9.72;84.48;101924.66;2568200;30;137867;-40
2021/11/08 10:55:40;;;;;;;19.45;4.10;;;11.00;99.90;;;9.74;83.86;101924.44;2568350;30;138920;-40
2021/11/08 10:58:11;;;;;;;15.25;3.75;;;11.10;99.90;;;9.84;84.83;101929.69;2567883;30;137033;-40
2021/11/08 11:00:56;;;;;;;18.80;3.65;;;11.10;99.90;;;9.92;84.04;101932.34;2567123;30;138686;-40
2021/11/08 11:03:26;;;;;;;18.35;5.20;;;11.20;99.90;;;10.04;83.60;101919.13;2566013;30;137130;-40
2021/11/08 11:06:01;;;;;;;18.58;4.18;;;11.20;99.90;;;10.06;84.36;101919.78;2567038;30;137328;-40
2021/11/08 11:08:33;;;;;;;13.43;4.22;;;11.30;99.90;;;10.08;85.11;101924.03;2567264;30;137697;-40
2021/11/08 11:11:05;;;;;;;16.98;4.35;;;11.40;99.90;;;10.09;83.67;101927.63;2566512;30;138256;-40
2021/11/08 11:13:36;;;;;;;15.40;4.07;;;11.40;99.90;;;10.07;82.10;101918.75;2568080;30;137648;-40
2021/11/08 11:16:04;;;;;;;13.77;3.72;;;11.40;99.90;;;10.11;83.52;101911.06;2567913;30;138444;-40
2021/11/08 11:18:37;;;;;;;;;;;11.40;99.90;;;10.14;83.30;101917.03;2566604;30;137810;-40
2021/11/08 11:21:20;;;;;;;19.42;3.97;;;11.50;99.90;;;10.16;83.20;101914.97;2567830;30;138271;-40
2021/11/08 11:23:50;;;;;;;17.05;4.82;;;11.50;99.90;;;10.19;82.37;101914.59;2568124;30;137228;-40
2021/11/08 11:26:23;;;;;;;12.32;3.35;;;11.50;99.90;;;10.21;83.35;101907.06;2565869;30;138059;-40
2021/11/08 11:28:50;;;;;;;14.73;4.00;;;11.60;99.90;;;10.31;83.41;101914.13;2567898;30;137189;-40
2021/11/08 11:31:26;;;;;;;13.65;3.67;;;11.60;99.90;;;10.33;82.09;101903.88;2567950;30;138272;-40
2021/11/08 11:34:07;;;;;;;13.40;3.70;;;11.60;99.90;;;10.37;81.33;101913.44;2564818;30;137332;-40
2021/11/08 11:36:36;;;;;;;22.98;6.35;;;11.70;99.90;;;10.48;83.68;101918.47;2567027;30;138496;-40
2021/11/08 11:39:11;;;;;;;16.80;3.97;;;11.70;99.90;;;10.49;82.70;101922.88;2568116;30;137270;-40
2021/11/08 11:41:42;;;;;;;10.30;3.30;;;11.80;99.90;;;10.50;81.11;101908.19;2567781;30;139053;-39
2021/11/08 11:44:24;;;;;;;17.08;3.97;;;11.80;99.90;;;10.47;80.95;101910.44;2569109;30;136974;-40
2021/11/08 11:46:56;;;;;;;15.65;3.30;;;11.80;99.90;;;10.47;81.54;101907.72;2568011;30;138278;-40
2021/11/08 11:49:25;;;;;;;14.10;3.22;;;11.80;99.90;;;10.45;80.22;101910.66;2566121;30;137592;-40
2021/11/08 11:51:57;;;;;;;15.38;3.28;;;11.80;99.90;;;10.43;80.83;101912.72;2568495;30;138458;-40
2021/11/08 11:54:30;;;;;;;11.73;2.90;;;11.80;99.90;;;10.43;81.36;101920.91;2567960;30;137013;-40
2021/11/08 11:57:00;;;;;;;10.30;3.30;;;11.70;99.90;;;10.53;82.80;101917.91;2567802;30;137725;-40
2021/11/08 11:59:29;;;;;;;12.85;3.85;;;11.80;99.90;;;10.53;81.43;101911.59;2566278;30;137661;-40
2021/11/08 12:01:58;;;;;;;13.93;3.40;;;11.80;99.90;;;10.56;83.14;101923.00;2567933;30;138359;-40
2021/11/08 12:04:27;;;;;;;12.50;3.47;;;11.90;99.90;;;10.49;80.28;101922.88;2567511;30;137058;-40
2021/11/08 12:07:04;;;;;;;13.98;4.18;;;11.80;99.90;;;10.49;80.43;101908.41;2566131;30;139505;-40
2021/11/08 12:09:35;;;;;;;15.73;3.65;;;11.80;99.90;;;10.47;79.90;101919.50;2568328;30;137582;-40
2021/11/08 12:12:04;;;;;;;15.82;3.50;;;11.80;99.90;;;10.45;79.57;101926.16;2566491;30;138124;-40